Time;durP1;ratioP1;P1;durP2;ratioP2;P2;SDS_P1;SDS_P2;PMS_P1;PMS_P2;Temp;Humidity;BMP_temperature;BMP_pressure;BME280_temperature;BME280_humidity;BME280_pressure;Samples;Min_cycle;Max_cycle;Signal;HPM_P1;HPM_P2
2023/04/15 00:01:24;;;;;;;15.55;7.47;;;;;;;;;;5059220;28;20051;-78
2023/04/15 00:03:52;;;;;;;14.57;6.85;;;;;;;;;;5058138;28;20060;-78
2023/04/15 00:06:18;;;;;;;14.00;6.28;;;;;;;;;;5060185;28;20048;-77
2023/04/15 00:08:44;;;;;;;15.82;6.63;;;;;;;;;;5059886;28;20053;-78
2023/04/15 00:11:11;;;;;;;13.57;6.85;;;;;;;;;;5059826;28;20052;-78
2023/04/15 00:13:38;;;;;;;14.18;6.57;;;;;;;;;;5057904;28;20080;-77
2023/04/15 00:16:05;;;;;;;12.85;6.82;;;;;;;;;;5058847;28;20056;-78
2023/04/15 00:18:31;;;;;;;15.27;7.00;;;;;;;;;;5057503;28;20088;-78
2023/04/15 00:20:58;;;;;;;10.65;6.13;;;;;;;;;;5058033;28;20051;-77
2023/04/15 00:23:24;;;;;;;12.55;5.93;;;;;;;;;;5057703;28;20091;-78
2023/04/15 00:25:50;;;;;;;14.57;6.88;;;;;;;;;;5057773;28;20041;-78
2023/04/15 00:28:16;;;;;;;13.50;7.38;;;;;;;;;;5056556;28;20045;-78
2023/04/15 00:30:43;;;;;;;13.55;7.60;;;;;;;;;;5056502;28;20517;-78
2023/04/15 00:33:09;;;;;;;11.48;7.20;;;;;;;;;;5059238;28;20049;-77
2023/04/15 00:35:36;;;;;;;12.05;6.93;;;;;;;;;;5057517;28;20541;-78
2023/04/15 00:38:03;;;;;;;10.68;6.65;;;;;;;;;;5057145;28;20045;-78
2023/04/15 00:40:29;;;;;;;11.90;6.85;;;;;;;;;;5055389;28;20129;-78
2023/04/15 00:42:56;;;;;;;13.18;6.72;;;;;;;;;;5057430;28;20073;-78
2023/04/15 00:45:22;;;;;;;15.02;7.18;;;;;;;;;;5056606;28;20388;-77
2023/04/15 00:47:49;;;;;;;13.02;7.40;;;;;;;;;;5057848;28;20052;-77
2023/04/15 00:50:15;;;;;;;11.18;7.35;;;;;;;;;;5057047;28;20402;-77
2023/04/15 00:52:41;;;;;;;13.27;7.72;;;;;;;;;;5056050;28;20060;-78
2023/04/15 00:55:07;;;;;;;15.40;7.72;;;;;;;;;;5056273;28;20097;-77
2023/04/15 00:57:35;;;;;;;14.20;7.47;;;;;;;;;;5057717;28;20496;-77
2023/04/15 01:00:01;;;;;;;12.93;7.45;;;;;;;;;;5056068;28;20045;-78
2023/04/15 01:02:27;;;;;;;13.38;7.47;;;;;;;;;;5057401;28;20124;-77
2023/04/15 01:04:53;;;;;;;18.23;9.02;;;;;;;;;;5057333;28;20041;-77
2023/04/15 01:07:20;;;;;;;15.07;8.93;;;;;;;;;;5057267;28;20079;-78
2023/04/15 01:09:46;;;;;;;15.15;9.00;;;;;;;;;;5060824;28;20049;-78
2023/04/15 01:12:15;;;;;;;14.82;8.27;;;;;;;;;;5063542;28;20071;-77
2023/04/15 01:14:41;;;;;;;14.38;8.73;;;;;;;;;;5058732;28;20118;-77
2023/04/15 01:17:07;;;;;;;13.45;8.63;;;;;;;;;;5060012;28;20037;-77
2023/04/15 01:19:33;;;;;;;15.13;7.65;;;;;;;;;;5059787;28;20045;-77
2023/04/15 01:22:00;;;;;;;13.32;7.93;;;;;;;;;;5060071;28;20041;-77
2023/04/15 01:24:27;;;;;;;15.93;8.77;;;;;;;;;;5058720;28;20068;-77
2023/04/15 01:26:53;;;;;;;16.77;10.07;;;;;;;;;;5060130;28;20053;-77
2023/04/15 01:29:19;;;;;;;15.60;10.88;;;;;;;;;;5058553;28;20116;-76
2023/04/15 01:31:52;;;;;;;19.33;11.73;;;;;;;;;;5060768;28;20048;-77
2023/04/15 01:34:19;;;;;;;17.50;10.98;;;;;;;;;;5060500;28;20096;-76
2023/04/15 01:36:46;;;;;;;19.55;12.05;;;;;;;;;;5058641;28;20119;-77
2023/04/15 01:39:12;;;;;;;18.42;12.05;;;;;;;;;;5058809;28;20041;-78
2023/04/15 01:41:39;;;;;;;18.75;12.30;;;;;;;;;;5059477;28;20045;-77
2023/04/15 01:44:06;;;;;;;18.05;11.88;;;;;;;;;;5061327;28;20483;-77
2023/04/15 01:46:33;;;;;;;20.23;11.82;;;;;;;;;;5059934;28;20810;-78
2023/04/15 01:48:59;;;;;;;19.20;11.80;;;;;;;;;;5061696;28;20033;-78
2023/04/15 01:51:26;;;;;;;21.45;11.18;;;;;;;;;;5059402;28;20048;-77
2023/04/15 01:53:52;;;;;;;21.58;11.30;;;;;;;;;;5058002;28;20057;-77
2023/04/15 01:56:18;;;;;;;17.25;10.60;;;;;;;;;;5042710;28;20073;-78
2023/04/15 01:58:45;;;;;;;15.60;9.77;;;;;;;;;;5061490;28;20123;-78
2023/04/15 02:01:11;;;;;;;17.20;9.45;;;;;;;;;;5061756;28;20087;-77
2023/04/15 02:03:38;;;;;;;15.00;9.85;;;;;;;;;;5062559;28;20445;-77
2023/04/15 02:06:05;;;;;;;15.30;9.75;;;;;;;;;;5064769;28;20147;-77
2023/04/15 02:08:31;;;;;;;17.40;10.48;;;;;;;;;;5057042;28;20059;-77
2023/04/15 02:10:57;;;;;;;16.85;10.45;;;;;;;;;;5059483;28;20236;-78
2023/04/15 02:13:23;;;;;;;16.48;9.50;;;;;;;;;;5059212;28;20107;-78
2023/04/15 02:15:51;;;;;;;16.85;10.77;;;;;;;;;;5057374;28;20048;-77
2023/04/15 02:18:17;;;;;;;19.20;10.35;;;;;;;;;;5059998;28;20148;-77
2023/04/15 02:20:44;;;;;;;16.70;10.52;;;;;;;;;;5034989;28;20071;-77
2023/04/15 02:23:10;;;;;;;16.02;9.85;;;;;;;;;;5054854;28;20045;-77
2023/04/15 02:25:37;;;;;;;15.35;9.85;;;;;;;;;;5061341;28;20446;-78
2023/04/15 02:28:05;;;;;;;16.23;9.82;;;;;;;;;;5062167;28;20065;-78
2023/04/15 02:30:32;;;;;;;18.15;10.18;;;;;;;;;;5062225;28;20109;-78
2023/04/15 02:32:58;;;;;;;14.45;9.43;;;;;;;;;;5061719;28;20041;-77
2023/04/15 02:35:24;;;;;;;15.13;10.70;;;;;;;;;;5059390;28;20032;-79
2023/04/15 02:37:51;;;;;;;16.50;10.82;;;;;;;;;;5059692;28;20045;-77
2023/04/15 02:40:17;;;;;;;20.58;10.77;;;;;;;;;;5054018;28;20077;-78
2023/04/15 02:42:43;;;;;;;19.20;11.02;;;;;;;;;;5053109;28;20070;-77
2023/04/15 02:45:11;;;;;;;16.33;9.90;;;;;;;;;;5061479;28;20068;-77
2023/04/15 02:47:40;;;;;;;14.98;9.38;;;;;;;;;;5057765;28;20044;-77
2023/04/15 02:50:11;;;;;;;16.77;10.40;;;;;;;;;;5059042;28;20041;-78
2023/04/15 02:52:37;;;;;;;16.10;9.63;;;;;;;;;;5054693;28;20131;-78
2023/04/15 02:55:04;;;;;;;14.23;9.68;;;;;;;;;;5056451;28;20049;-77
2023/04/15 02:57:30;;;;;;;15.82;10.55;;;;;;;;;;5056893;28;20036;-77
2023/04/15 02:59:56;;;;;;;15.77;10.23;;;;;;;;;;5057880;28;20056;-77
2023/04/15 03:02:22;;;;;;;16.02;9.98;;;;;;;;;;5058737;28;20045;-77
2023/04/15 03:04:48;;;;;;;17.48;11.50;;;;;;;;;;5058360;28;20570;-78
2023/04/15 03:07:15;;;;;;;14.52;10.10;;;;;;;;;;5059733;28;20076;-77
2023/04/15 03:09:41;;;;;;;16.20;11.30;;;;;;;;;;5057390;28;20083;-78
2023/04/15 03:12:07;;;;;;;16.33;11.05;;;;;;;;;;5056193;28;20052;-78
2023/04/15 03:14:33;;;;;;;16.80;10.88;;;;;;;;;;5056571;28;20053;-79
2023/04/15 03:16:59;;;;;;;15.82;10.48;;;;;;;;;;5057878;28;20067;-77
2023/04/15 03:19:25;;;;;;;16.90;11.32;;;;;;;;;;5055989;28;20051;-77
2023/04/15 03:21:51;;;;;;;19.05;11.13;;;;;;;;;;5056039;28;20059;-78
2023/04/15 03:24:18;;;;;;;16.08;11.10;;;;;;;;;;5057140;28;20041;-79
2023/04/15 03:26:44;;;;;;;17.92;11.20;;;;;;;;;;5056602;28;20070;-77
2023/04/15 03:29:10;;;;;;;18.35;11.48;;;;;;;;;;5055923;28;20041;-78
2023/04/15 03:31:36;;;;;;;15.75;11.52;;;;;;;;;;5060073;28;20124;-78
2023/04/15 03:34:02;;;;;;;16.45;11.88;;;;;;;;;;5064133;28;20560;-77
2023/04/15 03:36:30;;;;;;;17.88;10.77;;;;;;;;;;5062158;28;20049;-78
2023/04/15 03:38:57;;;;;;;18.75;12.07;;;;;;;;;;5059358;28;20074;-77
2023/04/15 03:41:23;;;;;;;16.48;11.60;;;;;;;;;;5058123;28;20487;-76
2023/04/15 03:43:51;;;;;;;18.05;12.10;;;;;;;;;;5057766;28;20045;-78
2023/04/15 03:46:17;;;;;;;17.25;11.68;;;;;;;;;;5057479;28;20048;-78
2023/04/15 03:48:43;;;;;;;15.70;12.13;;;;;;;;;;5060290;28;20049;-78
2023/04/15 03:51:10;;;;;;;18.27;11.82;;;;;;;;;;5059715;28;20767;-79
2023/04/15 03:53:36;;;;;;;20.17;12.70;;;;;;;;;;5059324;28;20573;-77
2023/04/15 03:56:02;;;;;;;18.90;13.95;;;;;;;;;;5040277;28;20049;-78
2023/04/15 03:58:28;;;;;;;20.73;12.85;;;;;;;;;;5058485;28;20049;-78
2023/04/15 04:00:55;;;;;;;19.48;14.15;;;;;;;;;;5056975;28;20049;-79
2023/04/15 04:03:21;;;;;;;18.63;13.65;;;;;;;;;;5059631;28;20099;-77
2023/04/15 04:05:47;;;;;;;18.98;13.60;;;;;;;;;;5056499;28;20071;-78
2023/04/15 04:08:15;;;;;;;18.35;14.23;;;;;;;;;;5056373;28;20060;-78
2023/04/15 04:10:41;;;;;;;18.63;14.30;;;;;;;;;;5062653;28;20060;-78
2023/04/15 04:13:07;;;;;;;21.20;15.05;;;;;;;;;;5071762;28;20052;-78
2023/04/15 04:15:33;;;;;;;20.63;14.00;;;;;;;;;;5068413;28;20048;-78
2023/04/15 04:17:59;;;;;;;19.98;13.73;;;;;;;;;;5056420;28;20757;-78
2023/04/15 04:20:25;;;;;;;18.80;14.35;;;;;;;;;;5058657;28;20049;-78
2023/04/15 04:22:51;;;;;;;21.90;14.63;;;;;;;;;;5056420;28;20069;-78
2023/04/15 04:25:17;;;;;;;24.13;14.27;;;;;;;;;;5057812;28;20491;-77
2023/04/15 04:27:44;;;;;;;20.50;13.55;;;;;;;;;;5057860;28;20049;-78
2023/04/15 04:30:10;;;;;;;18.30;13.15;;;;;;;;;;5057599;28;20175;-77
2023/04/15 04:32:37;;;;;;;18.08;13.32;;;;;;;;;;5058367;28;20114;-78
2023/04/15 04:35:03;;;;;;;19.48;13.93;;;;;;;;;;5058620;28;20045;-78
2023/04/15 04:37:29;;;;;;;19.65;13.30;;;;;;;;;;5057079;28;20047;-78
2023/04/15 04:39:55;;;;;;;20.17;13.50;;;;;;;;;;5055927;28;20506;-77
2023/04/15 04:42:22;;;;;;;20.63;13.60;;;;;;;;;;5056177;28;20045;-78
2023/04/15 04:44:48;;;;;;;18.58;13.15;;;;;;;;;;5056849;28;20041;-77
2023/04/15 04:47:14;;;;;;;19.00;13.45;;;;;;;;;;5056021;28;20033;-77
2023/04/15 04:49:40;;;;;;;20.27;13.63;;;;;;;;;;5054576;28;20522;-77
2023/04/15 04:52:06;;;;;;;19.55;13.23;;;;;;;;;;5059434;28;20495;-78
2023/04/15 04:54:33;;;;;;;21.83;14.18;;;;;;;;;;5060107;28;20045;-76
2023/04/15 04:56:59;;;;;;;23.15;15.02;;;;;;;;;;5060195;28;20041;-78
2023/04/15 04:59:25;;;;;;;21.50;15.27;;;;;;;;;;5058983;28;20052;-77
2023/04/15 05:01:52;;;;;;;20.50;15.18;;;;;;;;;;5059870;28;20052;-78
2023/04/15 05:04:18;;;;;;;19.48;15.40;;;;;;;;;;5060238;28;20044;-77
2023/04/15 05:06:44;;;;;;;23.30;16.60;;;;;;;;;;5060649;28;20044;-78
2023/04/15 05:09:10;;;;;;;24.10;17.17;;;;;;;;;;5059977;28;20072;-78
2023/04/15 05:11:36;;;;;;;22.20;16.58;;;;;;;;;;5059234;28;20041;-76
2023/04/15 05:14:02;;;;;;;25.90;16.02;;;;;;;;;;5059616;28;20045;-78
2023/04/15 05:16:28;;;;;;;25.80;16.30;;;;;;;;;;5060594;28;20150;-78
2023/04/15 05:18:54;;;;;;;25.08;17.60;;;;;;;;;;5061060;28;20416;-77
2023/04/15 05:21:20;;;;;;;25.05;17.60;;;;;;;;;;5060022;28;20048;-78
2023/04/15 05:23:46;;;;;;;24.48;17.42;;;;;;;;;;5063754;28;20033;-77
2023/04/15 05:26:13;;;;;;;27.08;19.42;;;;;;;;;;5060406;28;20037;-78
2023/04/15 05:28:39;;;;;;;25.20;18.83;;;;;;;;;;5058179;28;20046;-78
2023/04/15 05:31:06;;;;;;;29.08;20.35;;;;;;;;;;5059048;28;20499;-79
2023/04/15 05:33:32;;;;;;;27.08;19.42;;;;;;;;;;5058645;28;20048;-77
2023/04/15 05:35:58;;;;;;;28.05;20.13;;;;;;;;;;5058766;28;20123;-77
2023/04/15 05:38:24;;;;;;;29.63;21.25;;;;;;;;;;5050682;28;20040;-79
2023/04/15 05:40:50;;;;;;;31.27;21.35;;;;;;;;;;5062589;28;20041;-78
2023/04/15 05:43:16;;;;;;;27.60;21.23;;;;;;;;;;5060758;28;20037;-77
2023/04/15 05:45:42;;;;;;;26.65;20.38;;;;;;;;;;5059094;28;20048;-78
2023/04/15 05:48:08;;;;;;;27.92;21.23;;;;;;;;;;5059241;28;20472;-78
2023/04/15 05:50:35;;;;;;;28.42;19.48;;;;;;;;;;5061121;28;20037;-77
2023/04/15 05:53:01;;;;;;;28.13;21.17;;;;;;;;;;5059674;28;20189;-78
2023/04/15 05:55:27;;;;;;;28.67;20.67;;;;;;;;;;5058337;28;20507;-78
2023/04/15 05:57:53;;;;;;;26.63;19.60;;;;;;;;;;5063549;28;20409;-78
2023/04/15 06:00:20;;;;;;;25.63;18.92;;;;;;;;;;5064217;28;20041;-78
2023/04/15 06:02:46;;;;;;;30.30;19.92;;;;;;;;;;5059644;28;20100;-78
2023/04/15 06:05:13;;;;;;;27.17;19.35;;;;;;;;;;5056541;28;20059;-78
2023/04/15 06:07:39;;;;;;;26.88;19.48;;;;;;;;;;5056769;28;20397;-78
2023/04/15 06:10:06;;;;;;;29.60;20.27;;;;;;;;;;5059477;28;20079;-78
2023/04/15 06:12:32;;;;;;;27.33;20.13;;;;;;;;;;5059553;28;20045;-78
2023/04/15 06:14:58;;;;;;;27.50;20.40;;;;;;;;;;5059142;28;20041;-77
2023/04/15 06:17:24;;;;;;;24.55;18.58;;;;;;;;;;5059437;28;20116;-79
2023/04/15 06:19:54;;;;;;;25.27;18.15;;;;;;;;;;5060211;28;20041;-78
2023/04/15 06:22:21;;;;;;;27.83;18.02;;;;;;;;;;5059495;28;20033;-79
2023/04/15 06:24:49;;;;;;;23.40;18.40;;;;;;;;;;5065672;28;20053;-78
2023/04/15 06:27:15;;;;;;;25.42;18.05;;;;;;;;;;5064528;28;20041;-78
2023/04/15 06:29:41;;;;;;;25.52;17.73;;;;;;;;;;5070269;28;20045;-78
2023/04/15 06:32:07;;;;;;;25.63;18.30;;;;;;;;;;5058279;28;20048;-78
2023/04/15 06:34:34;;;;;;;25.90;18.58;;;;;;;;;;5056255;28;20132;-78
2023/04/15 06:37:00;;;;;;;27.73;18.67;;;;;;;;;;5054122;28;20049;-79
2023/04/15 06:39:26;;;;;;;23.80;18.08;;;;;;;;;;5056531;28;20497;-78
2023/04/15 06:41:52;;;;;;;25.20;18.77;;;;;;;;;;5056630;28;20502;-78
2023/04/15 06:44:18;;;;;;;27.83;18.67;;;;;;;;;;5058514;28;20388;-78
2023/04/15 06:46:44;;;;;;;22.63;16.88;;;;;;;;;;5058911;28;20045;-78
2023/04/15 06:49:11;;;;;;;23.48;16.85;;;;;;;;;;5062158;28;20067;-79
2023/04/15 06:51:37;;;;;;;22.48;14.80;;;;;;;;;;5059986;28;20056;-79
2023/04/15 06:54:05;;;;;;;22.48;14.55;;;;;;;;;;5059025;28;20049;-78
2023/04/15 06:56:32;;;;;;;22.15;15.38;;;;;;;;;;5070567;28;20044;-78
2023/04/15 06:58:58;;;;;;;16.95;13.48;;;;;;;;;;5058956;28;20053;-79
2023/04/15 07:01:24;;;;;;;16.38;12.18;;;;;;;;;;5039172;28;20050;-79
2023/04/15 07:03:50;;;;;;;16.98;12.98;;;;;;;;;;5057301;28;20044;-79
2023/04/15 07:06:16;;;;;;;17.00;11.93;;;;;;;;;;5058683;28;20055;-77
2023/04/15 07:08:42;;;;;;;18.33;10.75;;;;;;;;;;5061438;28;20049;-78
2023/04/15 07:11:08;;;;;;;16.55;10.65;;;;;;;;;;5059159;28;20502;-80
2023/04/15 07:13:35;;;;;;;14.63;10.13;;;;;;;;;;5058134;28;20052;-79
2023/04/15 07:16:01;;;;;;;12.50;9.13;;;;;;;;;;5074839;28;20041;-79
2023/04/15 07:18:27;;;;;;;15.45;9.18;;;;;;;;;;5062273;28;20106;-78
2023/04/15 07:20:53;;;;;;;13.27;9.48;;;;;;;;;;5063750;28;20041;-79
2023/04/15 07:23:20;;;;;;;14.23;10.15;;;;;;;;;;5069315;28;20044;-78
2023/04/15 07:25:46;;;;;;;14.10;9.73;;;;;;;;;;5062882;28;20101;-78
2023/04/15 07:28:12;;;;;;;13.60;9.95;;;;;;;;;;5059448;28;20068;-78
2023/04/15 07:30:38;;;;;;;13.85;9.52;;;;;;;;;;5061462;28;20178;-78
2023/04/15 07:33:04;;;;;;;13.40;8.88;;;;;;;;;;5059952;28;20473;-78
2023/04/15 07:35:30;;;;;;;14.63;9.45;;;;;;;;;;5062805;28;20131;-78
2023/04/15 07:37:56;;;;;;;13.98;8.95;;;;;;;;;;5062615;28;20053;-78
2023/04/15 07:40:22;;;;;;;14.27;9.20;;;;;;;;;;5058776;28;20037;-79
2023/04/15 07:42:48;;;;;;;13.90;9.55;;;;;;;;;;5060161;28;20118;-78
2023/04/15 07:45:15;;;;;;;15.70;9.93;;;;;;;;;;5061207;28;20045;-78
2023/04/15 07:47:42;;;;;;;12.55;8.80;;;;;;;;;;5062754;28;20045;-78
2023/04/15 07:50:10;;;;;;;14.20;9.15;;;;;;;;;;5062308;28;20033;-78
2023/04/15 07:52:38;;;;;;;13.70;8.80;;;;;;;;;;5061371;28;20384;-79
2023/04/15 07:55:07;;;;;;;12.77;9.00;;;;;;;;;;5062199;28;20387;-79
2023/04/15 07:57:37;;;;;;;14.57;8.80;;;;;;;;;;5062941;28;20055;-79
2023/04/15 08:00:04;;;;;;;12.93;8.50;;;;;;;;;;5062791;28;20045;-79
2023/04/15 08:02:31;;;;;;;13.13;8.25;;;;;;;;;;5065016;28;20044;-78
2023/04/15 08:04:57;;;;;;;13.10;8.48;;;;;;;;;;5069925;28;20041;-78
2023/04/15 08:07:24;;;;;;;11.73;8.20;;;;;;;;;;5065638;28;20085;-79
2023/04/15 08:09:50;;;;;;;11.18;6.47;;;;;;;;;;5064207;28;20051;-78
2023/04/15 08:12:16;;;;;;;9.90;6.47;;;;;;;;;;5082506;28;20059;-79
2023/04/15 08:14:42;;;;;;;9.38;6.03;;;;;;;;;;5062120;28;20131;-78
2023/04/15 08:17:08;;;;;;;6.85;4.55;;;;;;;;;;5060222;28;20044;-78
2023/04/15 08:19:34;;;;;;;10.60;5.88;;;;;;;;;;5062057;28;20055;-79
2023/04/15 08:22:01;;;;;;;10.40;5.57;;;;;;;;;;5062214;28;20041;-78
2023/04/15 08:24:27;;;;;;;8.52;6.05;;;;;;;;;;5063941;28;20045;-79
2023/04/15 08:26:53;;;;;;;8.85;5.75;;;;;;;;;;5061427;28;20095;-79
2023/04/15 08:29:19;;;;;;;8.32;5.50;;;;;;;;;;5065930;28;20040;-79
2023/04/15 08:31:46;;;;;;;11.88;5.95;;;;;;;;;;5061061;28;20078;-79
2023/04/15 08:34:12;;;;;;;9.07;5.70;;;;;;;;;;5065437;28;20045;-78
2023/04/15 08:36:38;;;;;;;11.05;5.45;;;;;;;;;;5072743;28;20070;-78
2023/04/15 08:39:04;;;;;;;9.68;4.93;;;;;;;;;;5076076;28;20178;-78
2023/04/15 08:41:54;;;;;;;8.52;4.78;;;;;;;;;;5074272;28;20053;-79
2023/04/15 08:44:20;;;;;;;7.63;4.90;;;;;;;;;;5070333;28;20056;-78
2023/04/15 08:46:47;;;;;;;8.45;5.10;;;;;;;;;;5068162;28;20402;-79
2023/04/15 08:49:14;;;;;;;8.68;5.40;;;;;;;;;;5066521;28;20037;-79
2023/04/15 08:51:40;;;;;;;9.98;4.97;;;;;;;;;;5067474;28;20033;-78
2023/04/15 08:54:07;;;;;;;9.10;4.78;;;;;;;;;;5067082;28;20041;-78
2023/04/15 08:56:33;;;;;;;7.63;4.82;;;;;;;;;;5066909;28;20045;-79
2023/04/15 08:58:59;;;;;;;9.30;4.60;;;;;;;;;;5063823;28;20045;-79
2023/04/15 09:01:25;;;;;;;9.73;4.63;;;;;;;;;;5068346;28;20079;-79
2023/04/15 09:03:55;;;;;;;8.25;4.70;;;;;;;;;;5067951;28;20071;-79
2023/04/15 09:06:22;;;;;;;8.25;4.72;;;;;;;;;;5065431;28;20041;-79
2023/04/15 09:08:51;;;;;;;9.10;4.50;;;;;;;;;;5065962;28;20045;-79
2023/04/15 09:11:18;;;;;;;10.63;5.13;;;;;;;;;;5067152;28;20070;-79
2023/04/15 09:13:45;;;;;;;9.35;4.55;;;;;;;;;;5067751;28;20087;-79
2023/04/15 09:16:12;;;;;;;8.77;4.63;;;;;;;;;;5067728;28;20037;-79
2023/04/15 09:18:38;;;;;;;10.07;4.35;;;;;;;;;;5065884;28;20171;-77
2023/04/15 09:21:07;;;;;;;11.38;4.35;;;;;;;;;;5061997;28;20071;-79
2023/04/15 09:23:33;;;;;;;6.57;4.05;;;;;;;;;;5060659;28;20506;-78
2023/04/15 09:25:59;;;;;;;7.15;3.92;;;;;;;;;;5066221;28;20055;-79
2023/04/15 09:28:25;;;;;;;7.30;3.70;;;;;;;;;;5065181;28;20059;-78
2023/04/15 09:30:55;;;;;;;11.68;4.30;;;;;;;;;;5066476;28;20045;-79
2023/04/15 09:33:21;;;;;;;12.40;4.03;;;;;;;;;;5065940;28;20049;-79
2023/04/15 09:36:04;;;;;;;8.70;4.18;;;;;;;;;;5067407;28;20045;-79
2023/04/15 09:38:30;;;;;;;9.70;3.95;;;;;;;;;;5059553;28;20192;-79
2023/04/15 09:40:57;;;;;;;6.60;3.42;;;;;;;;;;5065492;28;20041;-79
2023/04/15 09:43:24;;;;;;;7.38;3.92;;;;;;;;;;5066271;28;20037;-79
2023/04/15 09:45:51;;;;;;;7.63;3.42;;;;;;;;;;5069502;28;20103;-79
2023/04/15 09:48:22;;;;;;;9.98;3.85;;;;;;;;;;5055406;28;20049;-78
2023/04/15 09:50:49;;;;;;;7.22;3.50;;;;;;;;;;5064483;28;20569;-79
2023/04/15 09:53:17;;;;;;;8.82;3.75;;;;;;;;;;5067324;28;20076;-78
2023/04/15 09:55:49;;;;;;;7.85;3.55;;;;;;;;;;5070526;28;20052;-78
2023/04/15 09:58:22;;;;;;;7.93;3.55;;;;;;;;;;5068096;28;20048;-78
2023/04/15 10:00:49;;;;;;;6.65;3.28;;;;;;;;;;5065529;28;20045;-79
2023/04/15 10:03:20;;;;;;;8.35;3.80;;;;;;;;;;5058398;28;20494;-79
2023/04/15 10:05:47;;;;;;;7.32;3.33;;;;;;;;;;5064957;28;20053;-79
2023/04/15 10:08:13;;;;;;;7.53;3.63;;;;;;;;;;5066585;28;20048;-79
2023/04/15 10:10:39;;;;;;;9.20;3.22;;;;;;;;;;5067461;28;20045;-79
2023/04/15 10:13:06;;;;;;;9.02;2.80;;;;;;;;;;5064431;28;20048;-78
2023/04/15 10:15:33;;;;;;;7.82;3.00;;;;;;;;;;5058845;28;20047;-78
2023/04/15 10:18:00;;;;;;;8.07;3.20;;;;;;;;;;5057135;28;20041;-80
2023/04/15 10:20:26;;;;;;;7.10;2.90;;;;;;;;;;5066833;28;20040;-78
2023/04/15 10:22:53;;;;;;;7.55;2.83;;;;;;;;;;5066611;28;20049;-79
2023/04/15 10:25:19;;;;;;;9.10;3.17;;;;;;;;;;5062655;28;20045;-78
2023/04/15 10:27:47;;;;;;;7.75;3.10;;;;;;;;;;5064742;28;20045;-78
2023/04/15 10:30:13;;;;;;;7.25;3.55;;;;;;;;;;5056149;28;20044;-78
2023/04/15 10:32:40;;;;;;;8.45;3.30;;;;;;;;;;5054471;28;20048;-78
2023/04/15 10:35:07;;;;;;;11.18;3.40;;;;;;;;;;5068202;28;20490;-79
2023/04/15 10:37:35;;;;;;;7.30;3.40;;;;;;;;;;5063849;28;20139;-79
2023/04/15 10:40:21;;;;;;;9.20;3.40;;;;;;;;;;5063825;28;20080;-79
2023/04/15 10:42:47;;;;;;;10.75;3.78;;;;;;;;;;5064060;28;20159;-78
2023/04/15 10:45:16;;;;;;;8.18;3.50;;;;;;;;;;5065694;28;20056;-77
2023/04/15 10:47:43;;;;;;;8.32;3.75;;;;;;;;;;5065859;28;20041;-78
2023/04/15 10:50:09;;;;;;;7.45;3.58;;;;;;;;;;5063044;28;20064;-79
2023/04/15 10:52:40;;;;;;;9.77;3.67;;;;;;;;;;5071544;28;20041;-78
2023/04/15 10:55:18;;;;;;;10.05;2.97;;;;;;;;;;5073689;28;20041;-79
2023/04/15 10:57:44;;;;;;;6.05;3.25;;;;;;;;;;5073325;28;20025;-79
2023/04/15 11:00:17;;;;;;;8.43;3.38;;;;;;;;;;5066499;28;20045;-79
2023/04/15 11:02:47;;;;;;;6.82;2.90;;;;;;;;;;5065757;28;20044;-79
2023/04/15 11:05:14;;;;;;;8.93;2.83;;;;;;;;;;5061361;28;20068;-79
2023/04/15 11:07:47;;;;;;;8.82;3.00;;;;;;;;;;5063228;28;20049;-79
2023/04/15 11:10:13;;;;;;;7.15;2.45;;;;;;;;;;5054693;28;20041;-79
2023/04/15 11:12:40;;;;;;;9.20;2.67;;;;;;;;;;5079710;28;20045;-78
2023/04/15 11:15:25;;;;;;;7.60;2.60;;;;;;;;;;5066476;28;20049;-79
2023/04/15 11:17:51;;;;;;;8.00;2.95;;;;;;;;;;5055918;28;20111;-78
2023/04/15 11:20:17;;;;;;;6.90;2.65;;;;;;;;;;5066019;28;20041;-78
2023/04/15 11:22:53;;;;;;;11.18;3.00;;;;;;;;;;5069853;28;20079;-78
2023/04/15 11:25:26;;;;;;;7.85;2.53;;;;;;;;;;5065677;28;20060;-79
2023/04/15 11:27:53;;;;;;;7.75;2.72;;;;;;;;;;5063386;28;20043;-79
2023/04/15 11:30:23;;;;;;;6.82;2.60;;;;;;;;;;5063284;28;20105;-77
2023/04/15 11:32:53;;;;;;;6.65;2.72;;;;;;;;;;5063401;28;20041;-79
2023/04/15 11:35:19;;;;;;;6.82;3.10;;;;;;;;;;5063238;28;20037;-78
2023/04/15 11:37:47;;;;;;;7.53;2.83;;;;;;;;;;5059180;28;20041;-78
2023/04/15 11:40:14;;;;;;;6.88;3.00;;;;;;;;;;5061554;28;20053;-78
2023/04/15 11:42:40;;;;;;;7.90;3.15;;;;;;;;;;5061168;28;20198;-78
2023/04/15 11:45:13;;;;;;;11.77;3.45;;;;;;;;;;5057978;28;20041;-78
2023/04/15 11:47:40;;;;;;;7.82;3.20;;;;;;;;;;5060092;28;20045;-78
2023/04/15 11:50:16;;;;;;;8.65;2.80;;;;;;;;;;5071984;28;20064;-79
2023/04/15 11:52:52;;;;;;;8.00;2.72;;;;;;;;;;5066569;28;20045;-79
2023/04/15 11:55:18;;;;;;;8.52;2.83;;;;;;;;;;5045198;28;20041;-79
2023/04/15 11:57:45;;;;;;;7.03;2.72;;;;;;;;;;5093784;28;20040;-80
2023/04/15 12:00:11;;;;;;;8.88;2.97;;;;;;;;;;5068437;28;20065;-79
2023/04/15 12:02:37;;;;;;;6.35;2.67;;;;;;;;;;5064796;28;20066;-79
2023/04/15 12:05:04;;;;;;;8.75;2.85;;;;;;;;;;5077394;28;20921;-78
2023/04/15 12:07:30;;;;;;;8.32;2.63;;;;;;;;;;5061036;28;20058;-79
2023/04/15 12:09:57;;;;;;;10.10;2.75;;;;;;;;;;5072386;28;20052;-79
2023/04/15 12:12:27;;;;;;;9.52;3.00;;;;;;;;;;5081382;28;20048;-79
2023/04/15 12:14:53;;;;;;;7.45;2.63;;;;;;;;;;5064498;28;20057;-79
2023/04/15 12:17:20;;;;;;;8.15;2.95;;;;;;;;;;5080903;28;20044;-78
2023/04/15 12:19:47;;;;;;;9.75;2.60;;;;;;;;;;5060181;28;20467;-78
2023/04/15 12:22:14;;;;;;;8.52;2.50;;;;;;;;;;5062456;28;20411;-79
2023/04/15 12:24:42;;;;;;;8.65;2.67;;;;;;;;;;5064063;28;20053;-78
2023/04/15 12:27:10;;;;;;;8.43;2.70;;;;;;;;;;5064144;28;20037;-79
2023/04/15 12:29:37;;;;;;;9.73;3.40;;;;;;;;;;5060780;28;20044;-77
2023/04/15 12:32:05;;;;;;;9.70;2.35;;;;;;;;;;5071200;28;20048;-78
2023/04/15 12:34:33;;;;;;;8.68;2.70;;;;;;;;;;5058612;28;20095;-78
2023/04/15 12:37:02;;;;;;;7.00;2.13;;;;;;;;;;5072698;28;20052;-79
2023/04/15 12:39:30;;;;;;;9.57;2.63;;;;;;;;;;5061995;28;20048;-79
2023/04/15 12:41:56;;;;;;;7.38;2.38;;;;;;;;;;5066986;28;20047;-79
2023/04/15 12:44:23;;;;;;;10.63;2.65;;;;;;;;;;5066306;28;20045;-78
2023/04/15 12:46:49;;;;;;;9.68;2.42;;;;;;;;;;5066650;28;20044;-78
2023/04/15 12:49:18;;;;;;;10.55;2.55;;;;;;;;;;5080668;28;20067;-78
2023/04/15 12:51:44;;;;;;;10.65;2.78;;;;;;;;;;5065484;28;20045;-78
2023/04/15 12:54:10;;;;;;;12.43;2.67;;;;;;;;;;5065141;28;20040;-78
2023/04/15 12:56:36;;;;;;;9.07;2.65;;;;;;;;;;5064478;28;20190;-79
2023/04/15 12:59:03;;;;;;;8.48;2.58;;;;;;;;;;5065820;28;20068;-78
2023/04/15 13:01:29;;;;;;;10.60;2.60;;;;;;;;;;5061588;28;20068;-79
2023/04/15 13:03:55;;;;;;;9.13;2.85;;;;;;;;;;5057056;28;20096;-77
2023/04/15 13:06:22;;;;;;;11.60;2.65;;;;;;;;;;5056738;28;20049;-78
2023/04/15 13:08:48;;;;;;;11.60;3.05;;;;;;;;;;5066442;28;20059;-78
2023/04/15 13:11:16;;;;;;;9.73;2.17;;;;;;;;;;5075837;28;20059;-79
2023/04/15 13:13:42;;;;;;;11.25;2.58;;;;;;;;;;5085288;28;20020;-78
2023/04/15 13:16:08;;;;;;;7.72;2.20;;;;;;;;;;5075632;28;20368;-78
2023/04/15 13:18:34;;;;;;;11.88;2.30;;;;;;;;;;5066998;28;20067;-78
2023/04/15 13:21:02;;;;;;;9.57;2.63;;;;;;;;;;5067184;28;20037;-78
2023/04/15 13:23:29;;;;;;;9.50;2.95;;;;;;;;;;5076265;28;20090;-78
2023/04/15 13:25:58;;;;;;;10.95;2.60;;;;;;;;;;5070345;28;20045;-79
2023/04/15 13:28:24;;;;;;;10.98;2.80;;;;;;;;;;5071593;28;20060;-78
2023/04/15 13:30:50;;;;;;;10.68;2.53;;;;;;;;;;5049677;28;20060;-78
2023/04/15 13:33:17;;;;;;;9.68;2.40;;;;;;;;;;5059706;28;20049;-77
2023/04/15 13:35:43;;;;;;;8.30;2.17;;;;;;;;;;5063394;28;20128;-78
2023/04/15 13:38:09;;;;;;;12.13;3.08;;;;;;;;;;5065720;28;20518;-78
2023/04/15 13:40:35;;;;;;;8.98;2.60;;;;;;;;;;5063489;28;20094;-79
2023/04/15 13:43:02;;;;;;;9.27;2.45;;;;;;;;;;5065157;28;20058;-78
2023/04/15 13:45:28;;;;;;;10.73;2.55;;;;;;;;;;5066943;28;20049;-78
2023/04/15 13:47:55;;;;;;;10.40;2.72;;;;;;;;;;5066117;28;20044;-78
2023/04/15 13:50:21;;;;;;;10.38;3.03;;;;;;;;;;5066012;28;20064;-79
2023/04/15 13:52:47;;;;;;;7.35;2.70;;;;;;;;;;5062796;28;20120;-77
2023/04/15 13:55:14;;;;;;;13.60;2.90;;;;;;;;;;5060440;28;20094;-78
2023/04/15 13:57:40;;;;;;;14.13;3.00;;;;;;;;;;5061434;28;20052;-77
2023/04/15 14:00:06;;;;;;;14.82;3.13;;;;;;;;;;5061023;28;20045;-77
2023/04/15 14:02:32;;;;;;;14.60;3.30;;;;;;;;;;5061057;28;20075;-78
2023/04/15 14:04:58;;;;;;;13.73;3.55;;;;;;;;;;5059931;28;20406;-78
2023/04/15 14:07:24;;;;;;;11.75;3.05;;;;;;;;;;5064938;28;20155;-79
2023/04/15 14:09:51;;;;;;;13.93;3.03;;;;;;;;;;5066170;28;20056;-78
2023/04/15 14:12:17;;;;;;;10.55;3.35;;;;;;;;;;5066376;28;20056;-79
2023/04/15 14:14:44;;;;;;;10.20;3.05;;;;;;;;;;5066063;28;20072;-78
2023/04/15 14:17:10;;;;;;;12.50;2.97;;;;;;;;;;5063904;28;20057;-78
2023/04/15 14:19:36;;;;;;;14.35;3.75;;;;;;;;;;5064391;28;20072;-78
2023/04/15 14:22:02;;;;;;;13.70;3.42;;;;;;;;;;5064984;28;20037;-79
2023/04/15 14:24:28;;;;;;;14.73;7.45;;;;;;;;;;5066542;28;20052;-79
2023/04/15 14:26:56;;;;;;;12.63;5.90;;;;;;;;;;5065811;28;20112;-78